Webcam & Weather

This webcam image will automatically refresh every 15 seconds.


METAR and TAF for EGLL Heathrow (12 Nautical Miles East of White Waltham)

Available data for EGLL from the past hour
LONDON/HEATHROW
Metar
EGLL 121820Z AUTO 10007KT 9999 NCD 03/M01 Q1021

18:20 UTC

Wind: 100° 7kt

Visibility: 9999 m

Sky:

Temp: 3 deg C / 37.4 deg F

Dewpoint: -1 deg C / 30.2 deg F

Pressure: 1021 hPa

TAF
TAF EGLL 121700Z 1218/1324 12008KT 9999 SCT030 PROB40 1222/1309 8000 PROB30 1320/1324 7000

Play 24 hour timelapse | Play 30 day timelapse

Comments are closed.